Aviation Digital Data Service (ADDS)

Output produced by METARs form (1712 UTC 13 February 2016)
found at http://www.aviationweather.gov/adds/metars/
 
KDEN 131544Z 1316/1418 21005KT 3SM BR SCT002 SCT120 
     FM131800 22007KT P6SM FEW140 BKN220 
     FM132000 26008KT P6SM SCT220 
     FM132200 30011KT P6SM FEW220 
     FM140300 36010KT P6SM FEW220 
     FM140800 04008KT P6SM SCT140 BKN200 
     FM141200 15008KT P6SM SCT100 BKN160